Livingston, Wisconsin
Current Conditions -  °F | °C
As of 6:50 PM on Monday 26 Jan 2015 (Local Time) from KMRJ Reporting Station
Light Snow Light Snow  
Wind Chill: 21°   Ceiling: 200
Heat Index: 27°   Visibility: 1.7mi
Dew Point: 25°   Wind: 5mph
Humidity: 93%   Direction: 150°SSE
Pressure: 29.84"   Gusts: NA
Location:  42.9°N, 90.43°W
Report Text: KMRJ 270050Z AUTO 15004KT 1 3/4SM -SN OVC002 M03/M04 A2984 RMK AO2
Loading
Personal Weather Stations






























Interactive Weather Map New forecast layout! Learn more

10-Day Weather Forecast

Advertisements
Track Severe Weather on mobile